Tenacious — ZQHM2 — position and weather

sailwx.info

Track history (hours):
 
Tides and Currents Weather Stations Pressure Air Temp Water Temp Dewpoint Dewpoint Depression Visibility Wind Speed Wind Dir Waves Ship Positions

Tenacious (United Kingdom)

Ship's website: http://www.jst.org.uk/

Last reported at 2019-Sep-20 05:52 UTC. Time now 2019-Sep-20 09:42 UTC.
Position N 53°47' W 005°03'.

Length 65 m; beam 10.6 m; draft 4.6 m.

Type: Sailing vessel. MMSI: 235000230.

Date/timePositionNaut miles runAvg speedWind from/ knotsBaromVisibWave heightAir tempDewpointWater temp
2019-Sep-20 05:52N 53°47' W 005°03'3 8.5
2019-Sep-20 05:28N 53°50' W 005°04'4 8.2
2019-Sep-20 05:00N 53°54' W 005°04'4 7.9
2019-Sep-20 04:30N 53°58' W 005°05'4 7.6
2019-Sep-20 04:00N 54°02' W 005°06'4 7.5
2019-Sep-20 03:30N 54°05' W 005°07'4 7.3
2019-Sep-20 03:00N 54°09' W 005°07'4 7.3
2019-Sep-20 02:28N 54°13' W 005°08'4 7.7
2019-Sep-20 01:58N 54°17' W 005°09'4 7.9
2019-Sep-20 01:30N 54°20' W 005°09'4 8.5
2019-Sep-20 01:00N 54°25' W 005°10'4 8.6
2019-Sep-20 00:30N 54°29' W 005°11'4 8.7
2019-Sep-19 23:59N 54°33' W 005°12'5 9.3
2019-Sep-19 23:30N 54°38' W 005°14'5 9.7
2019-Sep-19 23:00N 54°42' W 005°17'5 9.8
2019-Sep-19 22:30N 54°47' W 005°20'11 8.9
2019-Sep-19 21:17N 54°57' W 005°29'2 7.9
2019-Sep-19 20:59N 54°59' W 005°30'4 7.7
2019-Sep-19 20:30N 55°02' W 005°32'4 7.5
2019-Sep-19 20:00N 55°06' W 005°34'4 7.1
2019-Sep-19 19:30N 55°09' W 005°35'2 4.8
2019-Sep-19 18:59N 55°12' W 005°35'4 3.5
2019-Sep-19 17:58N 55°11' W 005°29'32 4.6
2019-Sep-19 11:03N 55°39' W 005°03'0 7.9
2019-Sep-19 11:00N 55°40' W 005°02'4 7.9
2019-Sep-19 10:30N 55°43' W 004°60'4 7.9
2019-Sep-19 10:00N 55°47' W 004°59'4 8.0
2019-Sep-19 09:30N 55°51' W 004°58'4 7.8
2019-Sep-19 09:00N 55°55' W 004°56'4 7.6
2019-Sep-19 08:30N 55°59' W 004°54'1 2.7
2019-Sep-19 08:00N 55°59' W 004°56'0 0.0
2019-Sep-19 07:30N 55°59' W 004°56'0 0.0
2019-Sep-19 06:57N 55°59' W 004°56'0 0.0
2019-Sep-19 06:30N 55°59' W 004°56'0 0.0
2019-Sep-19 06:00N 55°59' W 004°56'0 0.0
2019-Sep-19 05:24N 55°59' W 004°56'0 0.1
2019-Sep-19 05:00N 55°59' W 004°56'0 0.0
2019-Sep-19 04:27N 55°59' W 004°56'0 0.0
2019-Sep-19 04:00N 55°59' W 004°56'0 0.0
2019-Sep-19 03:30N 55°59' W 004°56'0 0.0
2019-Sep-19 03:00N 55°59' W 004°56'0 0.0
2019-Sep-19 02:30N 55°59' W 004°56'0 0.0
2019-Sep-19 02:00N 55°59' W 004°56'0 0.0
2019-Sep-19 01:30N 55°59' W 004°56'0 0.0
2019-Sep-19 00:57N 55°59' W 004°56'0 0.0
2019-Sep-19 00:30N 55°59' W 004°56'0 0.0
2019-Sep-19 00:00N 55°59' W 004°56'0 0.0
2019-Sep-18 23:30N 55°59' W 004°56'0 0.1
2019-Sep-18 22:57N 55°59' W 004°56'0 0.1
2019-Sep-18 22:24N 55°59' W 004°56'0 0.0
2019-Sep-18 21:57N 55°59' W 004°56'0 0.0
2019-Sep-18 21:30N 55°59' W 004°56'0 0.0
2019-Sep-18 21:00N 55°59' W 004°56'0 0.0
2019-Sep-18 20:30N 55°59' W 004°56'0 0.0
2019-Sep-18 20:00N 55°59' W 004°56'0 0.0
2019-Sep-18 19:27N 55°59' W 004°56'0 0.0
2019-Sep-18 19:00N 55°59' W 004°56'2 3.9
2019-Sep-18 18:30N 55°58' W 004°53'4 7.7
2019-Sep-18 18:00N 55°58' W 004°46'1 2.3
2019-Sep-18 17:31N 55°57' W 004°45'0 0.0
2019-Sep-18 17:00N 55°57' W 004°45'0 0.0
2019-Sep-18 16:30N 55°57' W 004°45'0 0.0
2019-Sep-18 16:00N 55°57' W 004°45'0 0.0
2019-Sep-18 15:30N 55°57' W 004°45'0 0.0
2019-Sep-18 15:00N 55°57' W 004°45'0 0.0
2019-Sep-18 14:30N 55°57' W 004°45'0 0.0
2019-Sep-18 14:00N 55°57' W 004°45'0 0.0
2019-Sep-18 13:30N 55°57' W 004°45'0 0.0
2019-Sep-18 13:00N 55°57' W 004°45'0 0.0
2019-Sep-18 12:30N 55°57' W 004°45'0 0.0
2019-Sep-18 12:00N 55°57' W 004°45'0 0.0
2019-Sep-18 11:30N 55°57' W 004°45'0 0.0
2019-Sep-18 11:00N 55°57' W 004°45'0 0.0
2019-Sep-18 10:30N 55°57' W 004°45'0 0.0
2019-Sep-18 10:00N 55°57' W 004°45'0 0.0
2019-Sep-18 09:30N 55°57' W 004°45'0 0.0
2019-Sep-18 09:00N 55°57' W 004°45'0 0.0
2019-Sep-18 08:30N 55°57' W 004°45'0 0.0
2019-Sep-18 08:00N 55°57' W 004°45'0 0.0
2019-Sep-18 07:30N 55°57' W 004°45'0 0.0
2019-Sep-18 07:00N 55°57' W 004°45'0 0.0
2019-Sep-18 06:30N 55°57' W 004°45'0 0.0
2019-Sep-18 06:00N 55°57' W 004°45'0 0.0
2019-Sep-18 05:30N 55°57' W 004°45'0 0.0
2019-Sep-18 05:00N 55°57' W 004°45'0 0.0
2019-Sep-18 04:30N 55°57' W 004°45'0 0.0
2019-Sep-18 04:00N 55°57' W 004°45'0 0.0
2019-Sep-18 03:30N 55°57' W 004°45'0 0.0
2019-Sep-18 03:00N 55°57' W 004°45'0 0.0
2019-Sep-18 02:30N 55°57' W 004°45'0 0.0
2019-Sep-18 02:00N 55°57' W 004°45'0 0.0
2019-Sep-18 01:30N 55°57' W 004°45'0 0.0
2019-Sep-18 01:00N 55°57' W 004°45'0 0.0
2019-Sep-18 00:30N 55°57' W 004°45'0 0.0
2019-Sep-18 00:00N 55°57' W 004°45'0 0.0
2019-Sep-17 23:30N 55°57' W 004°45'0 0.0
2019-Sep-17 23:00N 55°57' W 004°45'0 0.0
2019-Sep-17 22:30N 55°57' W 004°45'0 0.0
2019-Sep-17 22:00N 55°57' W 004°45'0 0.0
2019-Sep-17 21:30N 55°57' W 004°45'0 0.0
2019-Sep-17 20:57N 55°57' W 004°45'0 0.0
2019-Sep-17 20:30N 55°57' W 004°45'0 0.0
2019-Sep-17 19:48N 55°57' W 004°45'0 0.0
2019-Sep-17 19:30N 55°57' W 004°45'0 0.0
2019-Sep-17 19:00N 55°57' W 004°45'0 0.0
2019-Sep-17 18:30N 55°57' W 004°45'0 0.0
2019-Sep-17 18:00N 55°57' W 004°45'0 0.0
2019-Sep-17 17:30N 55°57' W 004°45'0 0.0
2019-Sep-17 17:00N 55°57' W 004°45'0 0.0
2019-Sep-17 16:30N 55°57' W 004°45'0 0.0
2019-Sep-17 16:00N 55°57' W 004°45'0 0.0
2019-Sep-17 15:30N 55°57' W 004°45'0 0.0
2019-Sep-17 15:00N 55°57' W 004°45'0 0.0
2019-Sep-17 14:30N 55°57' W 004°45'0 0.0
2019-Sep-17 14:00N 55°57' W 004°45'0 0.0
2019-Sep-17 13:30N 55°57' W 004°45'0 0.0
2019-Sep-17 13:00N 55°57' W 004°45'0 0.0
2019-Sep-17 12:30N 55°57' W 004°45'0 0.0
2019-Sep-17 12:00N 55°57' W 004°45'0 0.0
2019-Sep-17 11:30N 55°57' W 004°45'0 0.0
2019-Sep-17 11:00N 55°57' W 004°45'0 0.0
2019-Sep-17 10:30N 55°57' W 004°45'0 0.0
2019-Sep-17 10:00N 55°57' W 004°45'0 0.0
2019-Sep-17 09:30N 55°57' W 004°45'0 0.0
2019-Sep-17 09:00N 55°57' W 004°45'0 0.0
2019-Sep-17 08:30N 55°57' W 004°45'0 0.0
2019-Sep-17 08:00N 55°57' W 004°45'0 0.0
2019-Sep-17 07:30N 55°57' W 004°45'0 0.0
2019-Sep-17 07:00N 55°57' W 004°45'0 0.0
2019-Sep-17 06:24N 55°57' W 004°45'0 0.0
2019-Sep-17 05:57N 55°57' W 004°45'0 0.0
2019-Sep-17 05:30N 55°57' W 004°45'0 0.0
2019-Sep-17 05:00N 55°57' W 004°45'0 0.0
2019-Sep-17 04:30N 55°57' W 004°45'0 0.0
2019-Sep-17 04:00N 55°57' W 004°45'0 0.0
2019-Sep-17 03:30N 55°57' W 004°45'0 0.0
2019-Sep-17 02:59N 55°57' W 004°45'0 0.0
2019-Sep-17 02:29N 55°57' W 004°45'0 0.0
2019-Sep-17 01:59N 55°57' W 004°45'0 0.0
2019-Sep-17 01:29N 55°57' W 004°45'0 0.0
2019-Sep-17 00:59N 55°57' W 004°45'0 0.0
2019-Sep-17 00:29N 55°57' W 004°45'0 0.0
2019-Sep-16 23:59N 55°57' W 004°45'0 0.0
2019-Sep-16 23:26N 55°57' W 004°45'0 0.0
2019-Sep-16 22:59N 55°57' W 004°45'0 0.0
2019-Sep-16 22:29N 55°57' W 004°45'0 0.0
2019-Sep-16 21:59N 55°57' W 004°45'0 0.0
2019-Sep-16 21:29N 55°57' W 004°45'0 0.0
2019-Sep-16 20:59N 55°57' W 004°45'0 0.0
2019-Sep-16 20:26N 55°57' W 004°45'0 0.0
2019-Sep-16 19:59N 55°57' W 004°45'0 0.0
2019-Sep-16 19:29N 55°57' W 004°45'0 0.0
2019-Sep-16 18:59N 55°57' W 004°45'0 0.0
2019-Sep-16 18:29N 55°57' W 004°45'0 0.0
2019-Sep-16 17:56N 55°57' W 004°45'0 0.0
2019-Sep-16 17:26N 55°57' W 004°45'0 0.0
2019-Sep-16 13:05N 55°57' W 004°45'0 0.0
2019-Sep-16 12:59N 55°57' W 004°45'0 0.0
2019-Sep-16 12:29N 55°57' W 004°45'0 0.0
2019-Sep-16 11:59N 55°57' W 004°45'0 0.0
2019-Sep-16 11:29N 55°57' W 004°45'0 0.0
2019-Sep-16 10:56N 55°57' W 004°45'0 0.0
2019-Sep-16 10:29N 55°57' W 004°45'0 0.0
2019-Sep-16 09:59N 55°57' W 004°45'0 0.2
2019-Sep-16 09:28N 55°57' W 004°45'3 5.6
2019-Sep-16 09:00N 55°58' W 004°49'4 7.6
2019-Sep-16 08:30N 55°59' W 004°56'0 0.6
2019-Sep-16 08:00N 55°59' W 004°56'0 0.0
2019-Sep-16 07:24N 55°59' W 004°56'0 0.1
2019-Sep-16 07:00N 55°59' W 004°56'0 0.0
2019-Sep-16 06:30N 55°59' W 004°56'0 0.0
2019-Sep-16 05:54N 55°59' W 004°56'0 0.0
2019-Sep-16 05:30N 55°59' W 004°56'0 0.0
2019-Sep-16 05:00N 55°59' W 004°56'0 0.0
2019-Sep-16 04:21N 55°59' W 004°56'0 0.0
2019-Sep-16 04:00N 55°59' W 004°56'0 0.0
2019-Sep-16 03:30N 55°59' W 004°56'0 0.0
2019-Sep-16 03:00N 55°59' W 004°56'0 0.0
2019-Sep-16 02:30N 55°59' W 004°56'0 0.0
2019-Sep-16 02:00N 55°59' W 004°56'0 0.0
2019-Sep-16 01:30N 55°59' W 004°56'0 0.0
2019-Sep-16 01:00N 55°59' W 004°56'0 0.0
2019-Sep-16 00:27N 55°59' W 004°56'0 0.0
2019-Sep-15 23:57N 55°59' W 004°56'0 0.0
2019-Sep-15 23:27N 55°59' W 004°56'0 0.0
2019-Sep-15 22:59N 55°59' W 004°56'0 0.0
2019-Sep-15 22:23N 55°59' W 004°56'0 0.0
2019-Sep-15 21:59N 55°59' W 004°56'0 0.0
2019-Sep-15 21:29N 55°59' W 004°56'0 0.1
2019-Sep-15 20:56N 55°59' W 004°56'0 0.0
2019-Sep-15 20:23N 55°59' W 004°56'0 0.0
2019-Sep-15 19:59N 55°59' W 004°56'0 0.0
2019-Sep-15 19:26N 55°59' W 004°56'0 0.1
2019-Sep-15 18:53N 55°59' W 004°56'0 0.0
2019-Sep-15 18:29N 55°59' W 004°56'0 0.0
2019-Sep-15 17:59N 55°59' W 004°56'0 0.0
2019-Sep-15 17:23N 55°59' W 004°56'0 0.0
2019-Sep-15 16:59N 55°59' W 004°56'0 0.0
2019-Sep-15 16:26N 55°59' W 004°56'0 0.0
2019-Sep-15 15:59N 55°59' W 004°56'0 0.1
2019-Sep-15 15:30N 55°59' W 004°56'2 4.1
2019-Sep-15 15:00N 55°58' W 004°54'2 3.2
2019-Sep-15 14:30N 55°56' W 004°55'1 2.9
2019-Sep-15 14:00N 55°55' W 004°56'2 3.6
2019-Sep-15 13:30N 55°53' W 004°57'1 2.8
2019-Sep-15 13:00N 55°52' W 004°58'1 1.9
2019-Sep-15 12:30N 55°51' W 004°59'2 3.4
2019-Sep-15 12:00N 55°51' W 005°02'2 4.3
2019-Sep-15 11:29N 55°53' W 005°04'2 4.0
2019-Sep-15 11:00N 55°54' W 005°07'3 0.2
2019-Sep-14 17:40N 55°52' W 005°12'1 2.4
2019-Sep-14 17:13N 55°51' W 005°11'1 3.3
2019-Sep-14 17:00N 55°51' W 005°11'3 4.8
2019-Sep-14 16:25N 55°48' W 005°13'2 6.2
2019-Sep-14 16:00N 55°46' W 005°11'3 6.0
2019-Sep-14 15:30N 55°43' W 005°09'2 4.9
2019-Sep-14 15:00N 55°41' W 005°08'5 6.3
2019-Sep-14 14:13N 55°36' W 005°05'3 4.8
2019-Sep-14 13:30N 55°32' W 005°05'1 0.4
2019-Sep-14 11:57N 55°32' W 005°06'0 0.0
2019-Sep-14 10:51N 55°32' W 005°06'0 0.0
2019-Sep-14 10:30N 55°32' W 005°06'0 0.0
2019-Sep-14 09:42N 55°32' W 005°06'0 0.0
2019-Sep-14 08:30N 55°32' W 005°06'0 0.0
2019-Sep-14 07:24N 55°32' W 005°06'0 0.0
2019-Sep-14 06:48N 55°32' W 005°06'0 0.0
2019-Sep-14 06:27N 55°32' W 005°06'0 0.0
2019-Sep-14 05:27N 55°32' W 005°06'0 0.0
2019-Sep-14 04:45N 55°32' W 005°06'0 0.0
2019-Sep-14 04:30N 55°32' W 005°06'0 0.0
2019-Sep-14 03:51N 55°32' W 005°06'0 0.0
2019-Sep-14 02:12N 55°32' W 005°06'0 0.0
2019-Sep-14 01:30N 55°32' W 005°06'0 0.0
2019-Sep-14 00:15N 55°32' W 005°06'0 0.0
2019-Sep-13 23:12N 55°32' W 005°06'0 0.0
2019-Sep-13 20:53N 55°32' W 005°06'0 0.0
2019-Sep-13 19:29N 55°32' W 005°06'0 0.0
2019-Sep-13 18:56N 55°32' W 005°06'0 0.0
2019-Sep-13 17:38N 55°32' W 005°06'0 0.0
2019-Sep-13 15:08N 55°32' W 005°06'10 3.1
2019-Sep-13 12:01N 55°41' W 005°00'0 4.3
2019-Sep-13 11:59N 55°41' W 005°00'2 4.9
2019-Sep-13 11:30N 55°44' W 004°59'3 5.8
2019-Sep-13 11:00N 55°46' W 004°59'3 5.3
2019-Sep-13 10:30N 55°49' W 005°00'2 3.8
2019-Sep-13 10:00N 55°51' W 004°60'3 7.0
2019-Sep-13 09:30N 55°54' W 004°57'3 6.3
2019-Sep-13 09:00N 55°57' W 004°55'3 5.2
2019-Sep-13 08:30N 55°59' W 004°57'0 0.3
2019-Sep-13 08:00N 55°59' W 004°56'0 0.0
2019-Sep-13 07:30N 55°59' W 004°56'0 0.1
2019-Sep-13 07:00N 55°59' W 004°56'0 0.0
2019-Sep-13 06:30N 55°59' W 004°56'0 0.0
2019-Sep-13 06:00N 55°59' W 004°56'0 0.0
2019-Sep-13 05:27N 55°59' W 004°56'0 0.0
2019-Sep-13 05:00N 55°59' W 004°56'0 0.0
2019-Sep-13 04:24N 55°59' W 004°56'0 0.0
2019-Sep-13 03:57N 55°59' W 004°56'0 0.0
2019-Sep-13 03:15N 55°59' W 004°56'0 0.0
2019-Sep-13 03:00N 55°59' W 004°56'0 0.0
2019-Sep-13 02:21N 55°59' W 004°56'0 0.0
2019-Sep-13 01:30N 55°59' W 004°56'0 0.0
2019-Sep-13 01:00N 55°59' W 004°56'0 0.0
2019-Sep-13 00:27N 55°59' W 004°56'0 0.0
2019-Sep-12 23:51N 55°59' W 004°56'0 0.0
2019-Sep-12 23:30N 55°59' W 004°56'0 0.0
2019-Sep-12 22:54N 55°59' W 004°56'0 0.0
2019-Sep-12 22:30N 55°59' W 004°56'0 0.0
2019-Sep-12 21:57N 55°59' W 004°56'0 0.0
2019-Sep-12 21:30N 55°59' W 004°56'0 0.0
2019-Sep-12 21:00N 55°59' W 004°56'0 0.0
2019-Sep-12 20:27N 55°59' W 004°56'0 0.0
2019-Sep-12 20:00N 55°59' W 004°56'0 0.1
2019-Sep-12 19:30N 55°59' W 004°56'0 0.0
2019-Sep-12 19:00N 55°59' W 004°56'0 0.0
2019-Sep-12 18:27N 55°59' W 004°56'0 0.0
2019-Sep-12 17:54N 55°59' W 004°56'0 0.0
2019-Sep-12 17:27N 55°59' W 004°56'0 1.0
2019-Sep-12 17:01N 55°59' W 004°56'2 4.3
2019-Sep-12 16:30N 55°58' W 004°52'4 0.2
2019-Sep-11 22:15N 55°57' W 004°45'0 0.0
2019-Sep-11 22:00N 55°57' W 004°45'0 0.0
2019-Sep-11 21:27N 55°57' W 004°45'0 0.0
2019-Sep-11 21:00N 55°57' W 004°45'0 0.0
2019-Sep-11 20:27N 55°57' W 004°45'0 0.0
2019-Sep-11 19:57N 55°57' W 004°45'0 0.0
2019-Sep-11 19:27N 55°57' W 004°45'0 0.0
2019-Sep-11 18:57N 55°57' W 004°45'0 0.0
2019-Sep-11 18:27N 55°57' W 004°45'0 0.0
2019-Sep-11 18:00N 55°57' W 004°45'0 0.0
2019-Sep-11 17:27N 55°57' W 004°45'0 0.0
2019-Sep-11 17:00N 55°57' W 004°45'0 0.2
2019-Sep-11 16:30N 55°57' W 004°45'1 2.2
2019-Sep-11 16:00N 55°58' W 004°46'3 5.6
2019-Sep-11 15:30N 55°58' W 004°51'3 6.9
2019-Sep-11 15:00N 55°55' W 004°55'2 4.9
2019-Sep-11 14:30N 55°53' W 004°57'2 4.6
2019-Sep-11 14:00N 55°51' W 004°57'2 4.2
2019-Sep-11 13:30N 55°49' W 004°57'1 1.5
2019-Sep-11 13:00N 55°49' W 004°58'1 2.7
2019-Sep-11 12:30N 55°51' W 004°58'2 3.3
2019-Sep-11 12:00N 55°52' W 004°57'3 6.9
2019-Sep-11 11:30N 55°55' W 004°55'3 5.8
2019-Sep-11 11:00N 55°58' W 004°52'3 4.9
2019-Sep-11 10:29N 55°58' W 004°47'2 2.8
2019-Sep-11 09:50N 55°57' W 004°45'0 0.0
2019-Sep-11 09:23N 55°57' W 004°45'0 0.0
2019-Sep-11 08:56N 55°57' W 004°45'0 0.0
2019-Sep-11 08:19N 55°57' W 004°45'0 0.0
2019-Sep-11 07:58N 55°57' W 004°45'0 0.0
2019-Sep-11 07:25N 55°57' W 004°45'0 0.0
2019-Sep-11 06:52N 55°57' W 004°45'0 0.0
2019-Sep-11 06:25N 55°57' W 004°45'0 0.0
2019-Sep-11 05:58N 55°57' W 004°45'0 0.0
2019-Sep-11 05:28N 55°57' W 004°45'0 0.0
2019-Sep-11 04:58N 55°57' W 004°45'0 0.0
2019-Sep-11 04:25N 55°57' W 004°45'0 0.0
2019-Sep-11 03:58N 55°57' W 004°45'0 0.0
2019-Sep-11 03:28N 55°57' W 004°45'0 0.0
2019-Sep-11 02:58N 55°57' W 004°45'0 0.0
2019-Sep-11 02:28N 55°57' W 004°45'0 0.0
2019-Sep-11 01:58N 55°57' W 004°45'0 0.0
2019-Sep-11 01:28N 55°57' W 004°45'0 0.0
2019-Sep-11 00:49N 55°57' W 004°45'0 0.0
2019-Sep-11 00:25N 55°57' W 004°45'0 0.0
2019-Sep-10 23:55N 55°57' W 004°45'0 0.0
2019-Sep-10 23:25N 55°57' W 004°45'0 0.0
2019-Sep-10 22:58N 55°57' W 004°45'0 0.0
2019-Sep-10 22:25N 55°57' W 004°45'0 0.0
2019-Sep-10 21:58N 55°57' W 004°45'0 0.0
2019-Sep-10 21:16N 55°57' W 004°45'0 0.0
2019-Sep-10 20:58N 55°57' W 004°45'0 0.0
2019-Sep-10 20:28N 55°57' W 004°45'0 0.0
2019-Sep-10 19:55N 55°57' W 004°45'0 0.0
2019-Sep-10 19:28N 55°57' W 004°45'0 0.0
2019-Sep-10 18:49N 55°57' W 004°45'0 0.0
2019-Sep-10 18:16N 55°57' W 004°45'0 0.0
2019-Sep-10 17:31N 55°57' W 004°45'0 0.0
2019-Sep-10 17:07N 55°57' W 004°45'0 0.0
2019-Sep-10 16:25N 55°57' W 004°45'0 0.0
2019-Sep-10 15:55N 55°57' W 004°45'0 0.0
2019-Sep-10 15:31N 55°57' W 004°45'1 2.5
2019-Sep-10 14:59N 55°58' W 004°47'3 5.6
2019-Sep-10 14:31N 55°58' W 004°51'2 3.2
2019-Sep-10 14:00N 55°58' W 004°54'2 3.2
2019-Sep-10 13:30N 55°56' W 004°56'2 3.0
2019-Sep-10 13:01N 55°55' W 004°56'1 2.6
2019-Sep-10 12:30N 55°53' W 004°57'1 2.8
2019-Sep-10 12:01N 55°52' W 004°57'2 4.7
2019-Sep-10 11:30N 55°54' W 004°56'4 7.0
2019-Sep-10 11:00N 55°57' W 004°52'3 6.6
2019-Sep-10 10:30N 55°58' W 004°47'1 1.3
2019-Sep-10 09:22N 55°57' W 004°45'0 0.0
2019-Sep-10 07:46N 55°57' W 004°45'0 0.0
2019-Sep-10 07:28N 55°57' W 004°45'0 0.0
2019-Sep-10 06:40N 55°57' W 004°45'0 0.0
2019-Sep-10 06:28N 55°57' W 004°45'0 0.0
2019-Sep-10 05:58N 55°57' W 004°45'  
Track history (hours):
 
Tides and Currents Weather Stations Pressure Air Temp Water Temp Dewpoint Dewpoint Depression Visibility Wind Speed Wind Dir Waves Ship Positions

Tenacious (United Kingdom)

Ship's website: http://www.jst.org.uk/

Last reported at 2019-Sep-20 05:52 UTC. Time now 2019-Sep-20 09:42 UTC.
Position N 53°47' W 005°03'.

Length 65 m; beam 10.6 m; draft 4.6 m.

Type: Sailing vessel. MMSI: 235000230.

Date/timePositionNaut miles runAvg speedWind from/ knotsBaromVisibWave heightAir tempDewpointWater temp
2019-Sep-20 05:52N 53°47' W 005°03'3 8.5
2019-Sep-20 05:28N 53°50' W 005°04'4 8.2
2019-Sep-20 05:00N 53°54' W 005°04'4 7.9
2019-Sep-20 04:30N 53°58' W 005°05'4 7.6
2019-Sep-20 04:00N 54°02' W 005°06'4 7.5
2019-Sep-20 03:30N 54°05' W 005°07'4 7.3
2019-Sep-20 03:00N 54°09' W 005°07'4 7.3
2019-Sep-20 02:28N 54°13' W 005°08'4 7.7
2019-Sep-20 01:58N 54°17' W 005°09'4 7.9
2019-Sep-20 01:30N 54°20' W 005°09'4 8.5
2019-Sep-20 01:00N 54°25' W 005°10'4 8.6
2019-Sep-20 00:30N 54°29' W 005°11'4 8.7
2019-Sep-19 23:59N 54°33' W 005°12'5 9.3
2019-Sep-19 23:30N 54°38' W 005°14'5 9.7
2019-Sep-19 23:00N 54°42' W 005°17'5 9.8
2019-Sep-19 22:30N 54°47' W 005°20'11 8.9
2019-Sep-19 21:17N 54°57' W 005°29'2 7.9
2019-Sep-19 20:59N 54°59' W 005°30'4 7.7
2019-Sep-19 20:30N 55°02' W 005°32'4 7.5
2019-Sep-19 20:00N 55°06' W 005°34'4 7.1
2019-Sep-19 19:30N 55°09' W 005°35'2 4.8
2019-Sep-19 18:59N 55°12' W 005°35'4 3.5
2019-Sep-19 17:58N 55°11' W 005°29'32 4.6
2019-Sep-19 11:03N 55°39' W 005°03'0 7.9
2019-Sep-19 11:00N 55°40' W 005°02'4 7.9
2019-Sep-19 10:30N 55°43' W 004°60'4 7.9
2019-Sep-19 10:00N 55°47' W 004°59'4 8.0
2019-Sep-19 09:30N 55°51' W 004°58'4 7.8
2019-Sep-19 09:00N 55°55' W 004°56'4 7.6
2019-Sep-19 08:30N 55°59' W 004°54'1 2.7
2019-Sep-19 08:00N 55°59' W 004°56'0 0.0
2019-Sep-19 07:30N 55°59' W 004°56'0 0.0
2019-Sep-19 06:57N 55°59' W 004°56'0 0.0
2019-Sep-19 06:30N 55°59' W 004°56'0 0.0
2019-Sep-19 06:00N 55°59' W 004°56'0 0.0
2019-Sep-19 05:24N 55°59' W 004°56'0 0.1
2019-Sep-19 05:00N 55°59' W 004°56'0 0.0
2019-Sep-19 04:27N 55°59' W 004°56'0 0.0
2019-Sep-19 04:00N 55°59' W 004°56'0 0.0
2019-Sep-19 03:30N 55°59' W 004°56'0 0.0
2019-Sep-19 03:00N 55°59' W 004°56'0 0.0
2019-Sep-19 02:30N 55°59' W 004°56'0 0.0
2019-Sep-19 02:00N 55°59' W 004°56'0 0.0
2019-Sep-19 01:30N 55°59' W 004°56'0 0.0
2019-Sep-19 00:57N 55°59' W 004°56'0 0.0
2019-Sep-19 00:30N 55°59' W 004°56'0 0.0
2019-Sep-19 00:00N 55°59' W 004°56'0 0.0
2019-Sep-18 23:30N 55°59' W 004°56'0 0.1
2019-Sep-18 22:57N 55°59' W 004°56'0 0.1
2019-Sep-18 22:24N 55°59' W 004°56'0 0.0
2019-Sep-18 21:57N 55°59' W 004°56'0 0.0
2019-Sep-18 21:30N 55°59' W 004°56'0 0.0
2019-Sep-18 21:00N 55°59' W 004°56'0 0.0
2019-Sep-18 20:30N 55°59' W 004°56'0 0.0
2019-Sep-18 20:00N 55°59' W 004°56'0 0.0
2019-Sep-18 19:27N 55°59' W 004°56'0 0.0
2019-Sep-18 19:00N 55°59' W 004°56'2 3.9
2019-Sep-18 18:30N 55°58' W 004°53'4 7.7
2019-Sep-18 18:00N 55°58' W 004°46'1 2.3
2019-Sep-18 17:31N 55°57' W 004°45'0 0.0
2019-Sep-18 17:00N 55°57' W 004°45'0 0.0
2019-Sep-18 16:30N 55°57' W 004°45'0 0.0
2019-Sep-18 16:00N 55°57' W 004°45'0 0.0
2019-Sep-18 15:30N 55°57' W 004°45'0 0.0
2019-Sep-18 15:00N 55°57' W 004°45'0 0.0
2019-Sep-18 14:30N 55°57' W 004°45'0 0.0
2019-Sep-18 14:00N 55°57' W 004°45'0 0.0
2019-Sep-18 13:30N 55°57' W 004°45'0 0.0
2019-Sep-18 13:00N 55°57' W 004°45'0 0.0
2019-Sep-18 12:30N 55°57' W 004°45'0 0.0
2019-Sep-18 12:00N 55°57' W 004°45'0 0.0
2019-Sep-18 11:30N 55°57' W 004°45'0 0.0
2019-Sep-18 11:00N 55°57' W 004°45'0 0.0
2019-Sep-18 10:30N 55°57' W 004°45'0 0.0
2019-Sep-18 10:00N 55°57' W 004°45'0 0.0
2019-Sep-18 09:30N 55°57' W 004°45'0 0.0
2019-Sep-18 09:00N 55°57' W 004°45'0 0.0
2019-Sep-18 08:30N 55°57' W 004°45'0 0.0
2019-Sep-18 08:00N 55°57' W 004°45'0 0.0
2019-Sep-18 07:30N 55°57' W 004°45'0 0.0
2019-Sep-18 07:00N 55°57' W 004°45'0 0.0
2019-Sep-18 06:30N 55°57' W 004°45'0 0.0
2019-Sep-18 06:00N 55°57' W 004°45'0 0.0
2019-Sep-18 05:30N 55°57' W 004°45'0 0.0
2019-Sep-18 05:00N 55°57' W 004°45'0 0.0
2019-Sep-18 04:30N 55°57' W 004°45'0 0.0
2019-Sep-18 04:00N 55°57' W 004°45'0 0.0
2019-Sep-18 03:30N 55°57' W 004°45'0 0.0
2019-Sep-18 03:00N 55°57' W 004°45'0 0.0
2019-Sep-18 02:30N 55°57' W 004°45'0 0.0
2019-Sep-18 02:00N 55°57' W 004°45'0 0.0
2019-Sep-18 01:30N 55°57' W 004°45'0 0.0
2019-Sep-18 01:00N 55°57' W 004°45'0 0.0
2019-Sep-18 00:30N 55°57' W 004°45'0 0.0
2019-Sep-18 00:00N 55°57' W 004°45'0 0.0
2019-Sep-17 23:30N 55°57' W 004°45'0 0.0
2019-Sep-17 23:00N 55°57' W 004°45'0 0.0
2019-Sep-17 22:30N 55°57' W 004°45'0 0.0
2019-Sep-17 22:00N 55°57' W 004°45'0 0.0
2019-Sep-17 21:30N 55°57' W 004°45'0 0.0
2019-Sep-17 20:57N 55°57' W 004°45'0 0.0
2019-Sep-17 20:30N 55°57' W 004°45'0 0.0
2019-Sep-17 19:48N 55°57' W 004°45'0 0.0
2019-Sep-17 19:30N 55°57' W 004°45'0 0.0
2019-Sep-17 19:00N 55°57' W 004°45'0 0.0
2019-Sep-17 18:30N 55°57' W 004°45'0 0.0
2019-Sep-17 18:00N 55°57' W 004°45'0 0.0
2019-Sep-17 17:30N 55°57' W 004°45'0 0.0
2019-Sep-17 17:00N 55°57' W 004°45'0 0.0
2019-Sep-17 16:30N 55°57' W 004°45'0 0.0
2019-Sep-17 16:00N 55°57' W 004°45'0 0.0
2019-Sep-17 15:30N 55°57' W 004°45'0 0.0
2019-Sep-17 15:00N 55°57' W 004°45'0 0.0
2019-Sep-17 14:30N 55°57' W 004°45'0 0.0
2019-Sep-17 14:00N 55°57' W 004°45'0 0.0
2019-Sep-17 13:30N 55°57' W 004°45'0 0.0
2019-Sep-17 13:00N 55°57' W 004°45'0 0.0
2019-Sep-17 12:30N 55°57' W 004°45'0 0.0
2019-Sep-17 12:00N 55°57' W 004°45'0 0.0
2019-Sep-17 11:30N 55°57' W 004°45'0 0.0
2019-Sep-17 11:00N 55°57' W 004°45'0 0.0
2019-Sep-17 10:30N 55°57' W 004°45'0 0.0
2019-Sep-17 10:00N 55°57' W 004°45'0 0.0
2019-Sep-17 09:30N 55°57' W 004°45'0 0.0
2019-Sep-17 09:00N 55°57' W 004°45'0 0.0
2019-Sep-17 08:30N 55°57' W 004°45'0 0.0
2019-Sep-17 08:00N 55°57' W 004°45'0 0.0
2019-Sep-17 07:30N 55°57' W 004°45'0 0.0
2019-Sep-17 07:00N 55°57' W 004°45'0 0.0
2019-Sep-17 06:24N 55°57' W 004°45'0 0.0
2019-Sep-17 05:57N 55°57' W 004°45'0 0.0
2019-Sep-17 05:30N 55°57' W 004°45'0 0.0
2019-Sep-17 05:00N 55°57' W 004°45'0 0.0
2019-Sep-17 04:30N 55°57' W 004°45'0 0.0
2019-Sep-17 04:00N 55°57' W 004°45'0 0.0
2019-Sep-17 03:30N 55°57' W 004°45'0 0.0
2019-Sep-17 02:59N 55°57' W 004°45'0 0.0
2019-Sep-17 02:29N 55°57' W 004°45'0 0.0
2019-Sep-17 01:59N 55°57' W 004°45'0 0.0
2019-Sep-17 01:29N 55°57' W 004°45'0 0.0
2019-Sep-17 00:59N 55°57' W 004°45'0 0.0
2019-Sep-17 00:29N 55°57' W 004°45'0 0.0
2019-Sep-16 23:59N 55°57' W 004°45'0 0.0
2019-Sep-16 23:26N 55°57' W 004°45'0 0.0
2019-Sep-16 22:59N 55°57' W 004°45'0 0.0
2019-Sep-16 22:29N 55°57' W 004°45'0 0.0
2019-Sep-16 21:59N 55°57' W 004°45'0 0.0
2019-Sep-16 21:29N 55°57' W 004°45'0 0.0
2019-Sep-16 20:59N 55°57' W 004°45'0 0.0
2019-Sep-16 20:26N 55°57' W 004°45'0 0.0
2019-Sep-16 19:59N 55°57' W 004°45'0 0.0
2019-Sep-16 19:29N 55°57' W 004°45'0 0.0
2019-Sep-16 18:59N 55°57' W 004°45'0 0.0
2019-Sep-16 18:29N 55°57' W 004°45'0 0.0
2019-Sep-16 17:56N 55°57' W 004°45'0 0.0
2019-Sep-16 17:26N 55°57' W 004°45'0 0.0
2019-Sep-16 13:05N 55°57' W 004°45'0 0.0
2019-Sep-16 12:59N 55°57' W 004°45'0 0.0
2019-Sep-16 12:29N 55°57' W 004°45'0 0.0
2019-Sep-16 11:59N 55°57' W 004°45'0 0.0
2019-Sep-16 11:29N 55°57' W 004°45'0 0.0
2019-Sep-16 10:56N 55°57' W 004°45'0 0.0
2019-Sep-16 10:29N 55°57' W 004°45'0 0.0
2019-Sep-16 09:59N 55°57' W 004°45'0 0.2
2019-Sep-16 09:28N 55°57' W 004°45'3 5.6
2019-Sep-16 09:00N 55°58' W 004°49'4 7.6
2019-Sep-16 08:30N 55°59' W 004°56'0 0.6
2019-Sep-16 08:00N 55°59' W 004°56'0 0.0
2019-Sep-16 07:24N 55°59' W 004°56'0 0.1
2019-Sep-16 07:00N 55°59' W 004°56'0 0.0
2019-Sep-16 06:30N 55°59' W 004°56'0 0.0
2019-Sep-16 05:54N 55°59' W 004°56'0 0.0
2019-Sep-16 05:30N 55°59' W 004°56'0 0.0
2019-Sep-16 05:00N 55°59' W 004°56'0 0.0
2019-Sep-16 04:21N 55°59' W 004°56'0 0.0
2019-Sep-16 04:00N 55°59' W 004°56'0 0.0
2019-Sep-16 03:30N 55°59' W 004°56'0 0.0
2019-Sep-16 03:00N 55°59' W 004°56'0 0.0
2019-Sep-16 02:30N 55°59' W 004°56'0 0.0
2019-Sep-16 02:00N 55°59' W 004°56'0 0.0
2019-Sep-16 01:30N 55°59' W 004°56'0 0.0
2019-Sep-16 01:00N 55°59' W 004°56'0 0.0
2019-Sep-16 00:27N 55°59' W 004°56'0 0.0
2019-Sep-15 23:57N 55°59' W 004°56'0 0.0
2019-Sep-15 23:27N 55°59' W 004°56'0 0.0
2019-Sep-15 22:59N 55°59' W 004°56'0 0.0
2019-Sep-15 22:23N 55°59' W 004°56'0 0.0
2019-Sep-15 21:59N 55°59' W 004°56'0 0.0
2019-Sep-15 21:29N 55°59' W 004°56'0 0.1
2019-Sep-15 20:56N 55°59' W 004°56'0 0.0
2019-Sep-15 20:23N 55°59' W 004°56'0 0.0
2019-Sep-15 19:59N 55°59' W 004°56'0 0.0
2019-Sep-15 19:26N 55°59' W 004°56'0 0.1
2019-Sep-15 18:53N 55°59' W 004°56'0 0.0
2019-Sep-15 18:29N 55°59' W 004°56'0 0.0
2019-Sep-15 17:59N 55°59' W 004°56'0 0.0
2019-Sep-15 17:23N 55°59' W 004°56'0 0.0
2019-Sep-15 16:59N 55°59' W 004°56'0 0.0
2019-Sep-15 16:26N 55°59' W 004°56'0 0.0
2019-Sep-15 15:59N 55°59' W 004°56'0 0.1
2019-Sep-15 15:30N 55°59' W 004°56'2 4.1
2019-Sep-15 15:00N 55°58' W 004°54'2 3.2
2019-Sep-15 14:30N 55°56' W 004°55'1 2.9
2019-Sep-15 14:00N 55°55' W 004°56'2 3.6
2019-Sep-15 13:30N 55°53' W 004°57'1 2.8
2019-Sep-15 13:00N 55°52' W 004°58'1 1.9
2019-Sep-15 12:30N 55°51' W 004°59'2 3.4
2019-Sep-15 12:00N 55°51' W 005°02'2 4.3
2019-Sep-15 11:29N 55°53' W 005°04'2 4.0
2019-Sep-15 11:00N 55°54' W 005°07'3 0.2
2019-Sep-14 17:40N 55°52' W 005°12'1 2.4
2019-Sep-14 17:13N 55°51' W 005°11'1 3.3
2019-Sep-14 17:00N 55°51' W 005°11'3 4.8
2019-Sep-14 16:25N 55°48' W 005°13'2 6.2
2019-Sep-14 16:00N 55°46' W 005°11'3 6.0
2019-Sep-14 15:30N 55°43' W 005°09'2 4.9
2019-Sep-14 15:00N 55°41' W 005°08'5 6.3
2019-Sep-14 14:13N 55°36' W 005°05'3 4.8
2019-Sep-14 13:30N 55°32' W 005°05'1 0.4
2019-Sep-14 11:57N 55°32' W 005°06'0 0.0
2019-Sep-14 10:51N 55°32' W 005°06'0 0.0
2019-Sep-14 10:30N 55°32' W 005°06'0 0.0
2019-Sep-14 09:42N 55°32' W 005°06'0 0.0
2019-Sep-14 08:30N 55°32' W 005°06'0 0.0
2019-Sep-14 07:24N 55°32' W 005°06'0 0.0
2019-Sep-14 06:48N 55°32' W 005°06'0 0.0
2019-Sep-14 06:27N 55°32' W 005°06'0 0.0
2019-Sep-14 05:27N 55°32' W 005°06'0 0.0
2019-Sep-14 04:45N 55°32' W 005°06'0 0.0
2019-Sep-14 04:30N 55°32' W 005°06'0 0.0
2019-Sep-14 03:51N 55°32' W 005°06'0 0.0
2019-Sep-14 02:12N 55°32' W 005°06'0 0.0
2019-Sep-14 01:30N 55°32' W 005°06'0 0.0
2019-Sep-14 00:15N 55°32' W 005°06'0 0.0
2019-Sep-13 23:12N 55°32' W 005°06'0 0.0
2019-Sep-13 20:53N 55°32' W 005°06'0 0.0
2019-Sep-13 19:29N 55°32' W 005°06'0 0.0
2019-Sep-13 18:56N 55°32' W 005°06'0 0.0
2019-Sep-13 17:38N 55°32' W 005°06'0 0.0
2019-Sep-13 15:08N 55°32' W 005°06'10 3.1
2019-Sep-13 12:01N 55°41' W 005°00'0 4.3
2019-Sep-13 11:59N 55°41' W 005°00'2 4.9
2019-Sep-13 11:30N 55°44' W 004°59'3 5.8
2019-Sep-13 11:00N 55°46' W 004°59'3 5.3
2019-Sep-13 10:30N 55°49' W 005°00'2 3.8
2019-Sep-13 10:00N 55°51' W 004°60'3 7.0
2019-Sep-13 09:30N 55°54' W 004°57'3 6.3
2019-Sep-13 09:00N 55°57' W 004°55'3 5.2
2019-Sep-13 08:30N 55°59' W 004°57'0 0.3
2019-Sep-13 08:00N 55°59' W 004°56'0 0.0
2019-Sep-13 07:30N 55°59' W 004°56'0 0.1
2019-Sep-13 07:00N 55°59' W 004°56'0 0.0
2019-Sep-13 06:30N 55°59' W 004°56'0 0.0
2019-Sep-13 06:00N 55°59' W 004°56'0 0.0
2019-Sep-13 05:27N 55°59' W 004°56'0 0.0
2019-Sep-13 05:00N 55°59' W 004°56'0 0.0
2019-Sep-13 04:24N 55°59' W 004°56'0 0.0
2019-Sep-13 03:57N 55°59' W 004°56'0 0.0
2019-Sep-13 03:15N 55°59' W 004°56'0 0.0
2019-Sep-13 03:00N 55°59' W 004°56'0 0.0
2019-Sep-13 02:21N 55°59' W 004°56'0 0.0
2019-Sep-13 01:30N 55°59' W 004°56'0 0.0
2019-Sep-13 01:00N 55°59' W 004°56'0 0.0
2019-Sep-13 00:27N 55°59' W 004°56'0 0.0
2019-Sep-12 23:51N 55°59' W 004°56'0 0.0
2019-Sep-12 23:30N 55°59' W 004°56'0 0.0
2019-Sep-12 22:54N 55°59' W 004°56'0 0.0
2019-Sep-12 22:30N 55°59' W 004°56'0 0.0
2019-Sep-12 21:57N 55°59' W 004°56'0 0.0
2019-Sep-12 21:30N 55°59' W 004°56'0 0.0
2019-Sep-12 21:00N 55°59' W 004°56'0 0.0
2019-Sep-12 20:27N 55°59' W 004°56'0 0.0
2019-Sep-12 20:00N 55°59' W 004°56'0 0.1
2019-Sep-12 19:30N 55°59' W 004°56'0 0.0
2019-Sep-12 19:00N 55°59' W 004°56'0 0.0
2019-Sep-12 18:27N 55°59' W 004°56'0 0.0
2019-Sep-12 17:54N 55°59' W 004°56'0 0.0
2019-Sep-12 17:27N 55°59' W 004°56'0 1.0
2019-Sep-12 17:01N 55°59' W 004°56'2 4.3
2019-Sep-12 16:30N 55°58' W 004°52'4 0.2
2019-Sep-11 22:15N 55°57' W 004°45'0 0.0
2019-Sep-11 22:00N 55°57' W 004°45'0 0.0
2019-Sep-11 21:27N 55°57' W 004°45'0 0.0
2019-Sep-11 21:00N 55°57' W 004°45'0 0.0
2019-Sep-11 20:27N 55°57' W 004°45'0 0.0
2019-Sep-11 19:57N 55°57' W 004°45'0 0.0
2019-Sep-11 19:27N 55°57' W 004°45'0 0.0
2019-Sep-11 18:57N 55°57' W 004°45'0 0.0
2019-Sep-11 18:27N 55°57' W 004°45'0 0.0
2019-Sep-11 18:00N 55°57' W 004°45'0 0.0
2019-Sep-11 17:27N 55°57' W 004°45'0 0.0
2019-Sep-11 17:00N 55°57' W 004°45'0 0.2
2019-Sep-11 16:30N 55°57' W 004°45'1 2.2
2019-Sep-11 16:00N 55°58' W 004°46'3 5.6
2019-Sep-11 15:30N 55°58' W 004°51'3 6.9
2019-Sep-11 15:00N 55°55' W 004°55'2 4.9
2019-Sep-11 14:30N 55°53' W 004°57'2 4.6
2019-Sep-11 14:00N 55°51' W 004°57'2 4.2
2019-Sep-11 13:30N 55°49' W 004°57'1 1.5
2019-Sep-11 13:00N 55°49' W 004°58'1 2.7
2019-Sep-11 12:30N 55°51' W 004°58'2 3.3
2019-Sep-11 12:00N 55°52' W 004°57'3 6.9
2019-Sep-11 11:30N 55°55' W 004°55'3 5.8
2019-Sep-11 11:00N 55°58' W 004°52'3 4.9
2019-Sep-11 10:29N 55°58' W 004°47'2 2.8
2019-Sep-11 09:50N 55°57' W 004°45'0 0.0
2019-Sep-11 09:23N 55°57' W 004°45'0 0.0
2019-Sep-11 08:56N 55°57' W 004°45'0 0.0
2019-Sep-11 08:19N 55°57' W 004°45'0 0.0
2019-Sep-11 07:58N 55°57' W 004°45'0 0.0
2019-Sep-11 07:25N 55°57' W 004°45'0 0.0
2019-Sep-11 06:52N 55°57' W 004°45'0 0.0
2019-Sep-11 06:25N 55°57' W 004°45'0 0.0
2019-Sep-11 05:58N 55°57' W 004°45'0 0.0
2019-Sep-11 05:28N 55°57' W 004°45'0 0.0
2019-Sep-11 04:58N 55°57' W 004°45'0 0.0
2019-Sep-11 04:25N 55°57' W 004°45'0 0.0
2019-Sep-11 03:58N 55°57' W 004°45'0 0.0
2019-Sep-11 03:28N 55°57' W 004°45'0 0.0
2019-Sep-11 02:58N 55°57' W 004°45'0 0.0
2019-Sep-11 02:28N 55°57' W 004°45'0 0.0
2019-Sep-11 01:58N 55°57' W 004°45'0 0.0
2019-Sep-11 01:28N 55°57' W 004°45'0 0.0
2019-Sep-11 00:49N 55°57' W 004°45'0 0.0
2019-Sep-11 00:25N 55°57' W 004°45'0 0.0
2019-Sep-10 23:55N 55°57' W 004°45'0 0.0
2019-Sep-10 23:25N 55°57' W 004°45'0 0.0
2019-Sep-10 22:58N 55°57' W 004°45'0 0.0
2019-Sep-10 22:25N 55°57' W 004°45'0 0.0
2019-Sep-10 21:58N 55°57' W 004°45'0 0.0
2019-Sep-10 21:16N 55°57' W 004°45'0 0.0
2019-Sep-10 20:58N 55°57' W 004°45'0 0.0
2019-Sep-10 20:28N 55°57' W 004°45'0 0.0
2019-Sep-10 19:55N 55°57' W 004°45'0 0.0
2019-Sep-10 19:28N 55°57' W 004°45'0 0.0
2019-Sep-10 18:49N 55°57' W 004°45'0 0.0
2019-Sep-10 18:16N 55°57' W 004°45'0 0.0
2019-Sep-10 17:31N 55°57' W 004°45'0 0.0
2019-Sep-10 17:07N 55°57' W 004°45'0 0.0
2019-Sep-10 16:25N 55°57' W 004°45'0 0.0
2019-Sep-10 15:55N 55°57' W 004°45'0 0.0
2019-Sep-10 15:31N 55°57' W 004°45'1 2.5
2019-Sep-10 14:59N 55°58' W 004°47'3 5.6
2019-Sep-10 14:31N 55°58' W 004°51'2 3.2
2019-Sep-10 14:00N 55°58' W 004°54'2 3.2
2019-Sep-10 13:30N 55°56' W 004°56'2 3.0
2019-Sep-10 13:01N 55°55' W 004°56'1 2.6
2019-Sep-10 12:30N 55°53' W 004°57'1 2.8
2019-Sep-10 12:01N 55°52' W 004°57'2 4.7
2019-Sep-10 11:30N 55°54' W 004°56'4 7.0
2019-Sep-10 11:00N 55°57' W 004°52'3 6.6
2019-Sep-10 10:30N 55°58' W 004°47'1 1.3
2019-Sep-10 09:22N 55°57' W 004°45'0 0.0
2019-Sep-10 07:46N 55°57' W 004°45'0 0.0
2019-Sep-10 07:28N 55°57' W 004°45'0 0.0
2019-Sep-10 06:40N 55°57' W 004°45'0 0.0
2019-Sep-10 06:28N 55°57' W 004°45'0 0.0
2019-Sep-10 05:58N 55°57' W 004°45'  

Dump ship's entire track history